createdAt,value
2023-01-19T00:05:07.565Z,16.00
2023-01-19T00:11:50.070Z,17.38
2023-01-19T00:18:32.683Z,12.50
2023-01-19T00:25:15.036Z,13.55
2023-01-19T00:31:57.294Z,12.85
2023-01-19T00:38:39.521Z,14.18
2023-01-19T00:45:23.995Z,17.23
2023-01-19T00:52:06.710Z,14.77
2023-01-19T00:58:49.030Z,14.10
2023-01-19T01:05:31.793Z,14.73
2023-01-19T01:12:14.221Z,12.75
2023-01-19T01:18:57.617Z,13.77
2023-01-19T01:25:40.244Z,12.77
2023-01-19T01:32:23.414Z,17.17
2023-01-19T01:39:06.163Z,14.48
2023-01-19T01:45:48.527Z,15.45
2023-01-19T01:52:33.715Z,13.23
2023-01-19T01:59:38.983Z,15.35
2023-01-19T02:06:22.219Z,13.35
2023-01-19T02:13:23.235Z,14.10
2023-01-19T02:20:06.181Z,12.25
2023-01-19T02:26:49.289Z,14.48
2023-01-19T02:33:31.828Z,10.25
2023-01-19T02:40:17.256Z,13.30
2023-01-19T02:46:59.738Z,13.05
2023-01-19T02:54:04.158Z,17.17
2023-01-19T03:01:13.542Z,14.93
2023-01-19T03:08:18.092Z,10.88
2023-01-19T03:15:09.715Z,17.02
2023-01-19T03:21:58.345Z,12.32
2023-01-19T03:28:44.177Z,14.77
2023-01-19T03:35:30.634Z,19.13
2023-01-19T03:42:15.750Z,15.73
2023-01-19T03:48:58.798Z,15.52
2023-01-19T03:55:44.710Z,14.43
2023-01-19T04:02:27.042Z,13.07
2023-01-19T04:09:09.436Z,13.23
2023-01-19T04:15:51.756Z,14.30
2023-01-19T04:22:34.307Z,20.00
2023-01-19T04:29:16.681Z,14.30
2023-01-19T04:35:59.027Z,13.95
2023-01-19T04:42:45.707Z,16.98
2023-01-19T04:49:28.028Z,17.67
2023-01-19T04:56:10.584Z,15.25
2023-01-19T05:02:53.480Z,16.20
2023-01-19T05:09:35.855Z,15.93
2023-01-19T05:16:18.421Z,13.48
2023-01-19T05:23:01.082Z,14.30
2023-01-19T05:29:44.547Z,17.15
2023-01-19T05:36:27.673Z,15.43
2023-01-19T05:43:10.217Z,15.20
2023-01-19T05:49:52.517Z,15.45
2023-01-19T05:56:35.865Z,14.27
2023-01-19T06:03:18.390Z,14.40
2023-01-19T06:10:00.752Z,14.38
2023-01-19T06:16:43.710Z,16.90
2023-01-19T06:23:27.215Z,17.58
2023-01-19T06:30:10.387Z,13.45
2023-01-19T06:36:52.652Z,13.98
2023-01-19T06:43:34.971Z,15.90
2023-01-19T06:50:17.491Z,13.55
2023-01-19T06:57:01.195Z,14.15
2023-01-19T07:03:46.801Z,13.48
2023-01-19T07:11:26.217Z,15.05
2023-01-19T07:17:31.589Z,12.82
2023-01-19T07:24:14.074Z,12.95
2023-01-19T07:30:57.304Z,16.00
2023-01-19T07:37:39.740Z,15.27
2023-01-19T07:44:22.097Z,13.13
2023-01-19T07:51:06.317Z,10.63
2023-01-19T07:57:52.425Z,11.68
2023-01-19T08:04:34.829Z,14.38
2023-01-19T08:11:17.228Z,12.02
2023-01-19T08:18:05.853Z,9.32
2023-01-19T08:24:50.282Z,8.88
2023-01-19T08:31:33.421Z,10.75
2023-01-19T08:38:17.044Z,9.38
2023-01-19T08:44:59.369Z,10.43
2023-01-19T08:51:41.914Z,9.23
2023-01-19T08:58:24.298Z,8.05
2023-01-19T09:05:07.192Z,7.68
2023-01-19T09:11:49.467Z,8.52
2023-01-19T09:18:32.007Z,11.95
2023-01-19T09:25:14.281Z,11.27
2023-01-19T09:31:57.633Z,11.68
2023-01-19T09:38:40.013Z,8.48
2023-01-19T09:45:48.378Z,9.27
2023-01-19T09:52:35.137Z,7.65
2023-01-19T09:59:22.226Z,10.95
2023-01-19T10:06:08.160Z,7.25
2023-01-19T10:13:28.918Z,8.35
2023-01-19T10:20:17.948Z,8.27
2023-01-19T10:27:00.735Z,6.32
2023-01-19T10:33:43.500Z,8.30
2023-01-19T10:40:36.207Z,10.30
2023-01-19T10:47:21.254Z,9.27
2023-01-19T10:54:04.692Z,14.05
2023-01-19T11:00:47.126Z,12.68
2023-01-19T11:07:35.590Z,8.93
2023-01-19T11:14:21.920Z,19.98
2023-01-19T11:21:16.303Z,15.93
2023-01-19T11:27:58.657Z,8.38
2023-01-19T11:34:41.189Z,8.07
2023-01-19T11:41:34.520Z,9.63
2023-01-19T11:48:30.091Z,7.07
2023-01-19T11:55:17.201Z,7.25
2023-01-19T12:02:04.328Z,7.03
2023-01-19T12:08:55.596Z,7.90
2023-01-19T12:15:42.912Z,10.45
2023-01-19T12:22:29.295Z,14.55
2023-01-19T12:29:14.087Z,13.38
2023-01-19T12:36:03.801Z,11.25
2023-01-19T12:42:50.530Z,7.30
2023-01-19T12:49:42.400Z,11.48
2023-01-19T12:56:31.300Z,7.80
2023-01-19T13:03:16.335Z,9.15
2023-01-19T13:09:58.851Z,9.73
2023-01-19T13:16:41.082Z,7.05
2023-01-19T13:23:54.264Z,8.13
2023-01-19T13:30:39.846Z,7.32
2023-01-19T13:37:26.205Z,6.88
2023-01-19T13:44:14.787Z,8.23
2023-01-19T13:51:16.918Z,8.85
2023-01-19T13:57:59.350Z,7.90
2023-01-19T14:04:42.248Z,7.78
2023-01-19T14:11:24.720Z,7.93
2023-01-19T14:18:19.040Z,7.88
2023-01-19T14:25:30.513Z,7.63
2023-01-19T14:32:13.792Z,7.13
2023-01-19T14:38:59.245Z,8.80
2023-01-19T14:45:47.322Z,10.07
2023-01-19T14:52:40.935Z,7.93
2023-01-19T14:59:23.273Z,11.23
2023-01-19T15:06:05.770Z,8.60
2023-01-19T15:12:49.760Z,8.35
2023-01-19T15:19:32.137Z,10.52
2023-01-19T15:26:17.625Z,10.85
2023-01-19T15:33:00.005Z,9.15
2023-01-19T15:39:43.295Z,11.80
2023-01-19T15:46:26.390Z,6.72
2023-01-19T15:53:14.694Z,8.52
2023-01-19T15:59:56.982Z,8.63
2023-01-19T16:06:39.582Z,11.35
2023-01-19T16:13:22.207Z,11.23
2023-01-19T16:20:05.510Z,10.13
2023-01-19T16:26:47.809Z,12.73
2023-01-19T16:33:30.235Z,12.23
2023-01-19T16:40:13.137Z,9.65
2023-01-19T16:46:55.652Z,11.20
2023-01-19T16:53:38.703Z,11.93
2023-01-19T17:00:21.340Z,10.00
2023-01-19T17:07:03.662Z,12.25
2023-01-19T17:13:47.233Z,14.50
2023-01-19T17:20:29.538Z,11.60
2023-01-19T17:27:11.944Z,24.27
2023-01-19T17:33:54.318Z,16.27
2023-01-19T17:40:37.780Z,15.13
2023-01-19T17:47:25.325Z,13.50
2023-01-19T17:54:07.965Z,14.40
2023-01-19T18:00:50.493Z,12.00
2023-01-19T18:07:32.854Z,10.27
2023-01-19T18:14:15.502Z,14.23
2023-01-19T18:20:59.551Z,15.13
2023-01-19T18:27:41.888Z,12.20
2023-01-19T18:34:24.170Z,14.57
2023-01-19T18:41:18.176Z,18.65
2023-01-19T18:48:02.235Z,16.10
2023-01-19T18:54:44.582Z,17.30
2023-01-19T19:01:32.505Z,32.00
2023-01-19T19:08:15.238Z,26.00
2023-01-19T19:14:57.839Z,22.80
2023-01-19T19:21:40.137Z,19.35
2023-01-19T19:28:22.450Z,25.48
2023-01-19T19:35:05.195Z,18.35
2023-01-19T19:41:47.470Z,20.25
2023-01-19T19:48:30.336Z,20.30
2023-01-19T19:55:12.855Z,16.90
2023-01-19T20:01:55.299Z,15.32
2023-01-19T20:08:37.693Z,22.77
2023-01-19T20:15:20.051Z,20.63
2023-01-19T20:22:02.375Z,22.05
2023-01-19T20:28:44.689Z,21.20
2023-01-19T20:35:26.982Z,18.15
2023-01-19T20:42:11.480Z,16.42
2023-01-19T20:48:54.688Z,16.85
2023-01-19T20:55:37.465Z,16.13
2023-01-19T21:02:20.348Z,17.98
2023-01-19T21:09:02.801Z,19.73
2023-01-19T21:15:45.255Z,17.80
2023-01-19T21:22:27.591Z,20.88
2023-01-19T21:29:13.224Z,19.48
2023-01-19T21:35:57.861Z,20.63
2023-01-19T21:42:40.516Z,24.15
2023-01-19T21:49:22.923Z,16.00
2023-01-19T21:56:10.557Z,17.13
2023-01-19T22:03:03.450Z,15.20
2023-01-19T22:09:48.092Z,13.50
2023-01-19T22:16:31.143Z,19.88
2023-01-19T22:23:13.462Z,15.23
2023-01-19T22:29:55.784Z,15.05
2023-01-19T22:36:38.358Z,16.80
2023-01-19T22:43:20.894Z,17.10
2023-01-19T22:50:03.252Z,16.35
2023-01-19T22:56:45.973Z,16.23
2023-01-19T23:03:29.365Z,17.58
2023-01-19T23:10:11.898Z,16.30
2023-01-19T23:16:54.214Z,24.17
2023-01-19T23:23:36.853Z,18.48
2023-01-19T23:30:19.500Z,23.27
2023-01-19T23:37:01.864Z,16.52
2023-01-19T23:43:45.037Z,19.67
2023-01-19T23:50:27.473Z,15.40
2023-01-19T23:57:09.947Z,16.45
